Terminal Aerodrome Forecast
Issued by NWS Jackson, MS

Home | Current Version | Previous Version | Text Only | Print | Product List | Glossary On
Versions: 1 2 3 4 5 6 7 8 9 10 11 12 13 14
000
FTUS44 KMEG 110530
TAFTUP
TAF
KTUP 110530Z 1106/1206 16003KT P6SM SKC
     FM110900 VRB03KT P6SM BKN060
     FM111600 18010G20KT P6SM OVC050
     FM120000 19010KT P6SM VCSH OVC050=

USA.gov is the U.S. government's official web portal to all federal, state and local government web resources and services.